createdAt,value
2018-12-05T12:28:20.860Z,2.20
2018-12-05T12:29:20.700Z,1.80
2018-12-05T12:30:20.667Z,2.00
2018-12-05T12:31:20.702Z,1.80
2018-12-05T12:32:20.590Z,2.10
2018-12-05T12:33:20.690Z,1.70
2018-12-05T12:34:20.550Z,2.30
2018-12-05T12:35:20.510Z,2.00
2018-12-05T12:36:20.512Z,1.90
2018-12-05T12:37:20.461Z,1.60
2018-12-05T12:38:20.437Z,2.00
2018-12-05T12:39:20.514Z,1.80
2018-12-05T12:40:20.395Z,1.70
2018-12-05T12:41:20.375Z,1.70
2018-12-05T12:42:20.335Z,1.90
2018-12-05T12:43:21.139Z,1.90
2018-12-05T12:44:20.368Z,2.00
2018-12-05T12:45:20.349Z,1.40
2018-12-05T12:46:21.289Z,2.10
2018-12-05T12:47:20.199Z,1.80
2018-12-05T12:48:20.164Z,1.50
2018-12-05T12:49:20.152Z,1.90
2018-12-05T12:50:20.210Z,1.60
2018-12-05T12:51:20.118Z,1.90
2018-12-05T12:52:20.061Z,1.70
2018-12-05T12:53:20.031Z,2.70
2018-12-05T12:54:20.011Z,1.80
2018-12-05T12:55:20.085Z,2.20
2018-12-05T12:56:19.964Z,1.70
2018-12-05T12:57:19.926Z,2.00
2018-12-05T12:58:19.906Z,1.60
2018-12-05T12:59:19.875Z,1.60
2018-12-05T13:00:19.959Z,1.80
2018-12-05T13:01:19.833Z,1.90
2018-12-05T13:02:19.816Z,1.90
2018-12-05T13:03:19.768Z,1.70
2018-12-05T13:04:19.729Z,1.80
2018-12-05T13:05:19.810Z,1.70
2018-12-05T13:06:19.676Z,1.80
2018-12-05T13:07:19.648Z,1.80
2018-12-05T13:08:19.790Z,1.20
2018-12-05T13:09:19.600Z,1.50
2018-12-05T13:10:19.687Z,1.50
2018-12-05T13:11:19.565Z,1.60
2018-12-05T13:12:19.540Z,1.40
2018-12-05T13:13:19.513Z,1.70
2018-12-05T13:14:19.521Z,1.40
2018-12-05T13:15:19.466Z,1.50
2018-12-05T13:16:19.580Z,1.40
2018-12-05T13:17:19.400Z,1.60
2018-12-05T13:18:19.837Z,1.50
2018-12-05T13:19:19.346Z,1.50
2018-12-05T13:20:19.433Z,1.50
2018-12-05T13:21:19.296Z,1.60
2018-12-05T13:22:19.429Z,1.40
2018-12-05T13:23:19.235Z,1.40
2018-12-05T13:24:19.229Z,1.60
2018-12-05T13:25:19.193Z,1.50
2018-12-05T13:26:19.164Z,1.50
2018-12-05T13:27:19.185Z,1.40
2018-12-05T13:28:19.114Z,1.40
2018-12-05T13:29:19.087Z,1.90
2018-12-05T13:30:19.063Z,1.20
2018-12-05T13:31:19.075Z,1.20
2018-12-05T13:32:19.137Z,1.40
2018-12-05T13:33:18.999Z,1.40
2018-12-05T13:34:18.973Z,1.60
2018-12-05T13:35:18.923Z,1.10
2018-12-05T13:36:20.585Z,1.40
2018-12-05T13:37:18.977Z,1.50
2018-12-05T13:38:20.649Z,1.30
2018-12-05T13:39:18.933Z,1.20
2018-12-05T13:40:18.815Z,1.00
2018-12-05T13:41:18.841Z,1.20
2018-12-05T13:42:18.849Z,1.10
2018-12-05T13:43:19.006Z,1.70
2018-12-05T13:44:18.709Z,1.20
2018-12-05T13:45:18.846Z,1.50
2018-12-05T13:46:18.818Z,1.40
2018-12-05T13:47:19.351Z,1.40
2018-12-05T13:48:19.020Z,1.60
2018-12-05T13:49:20.368Z,2.30
2018-12-05T13:50:20.440Z,1.40
2018-12-05T13:51:18.548Z,1.10
2018-12-05T13:52:18.519Z,1.10
2018-12-05T13:53:19.678Z,1.30
2018-12-05T13:54:19.441Z,1.10
2018-12-05T13:55:21.039Z,1.20
2018-12-05T13:56:19.314Z,1.20
2018-12-05T13:57:20.173Z,1.10
2018-12-05T13:58:19.369Z,1.10
2018-12-05T13:59:20.829Z,1.20
2018-12-05T14:00:18.291Z,1.10
2018-12-05T14:01:18.375Z,1.50
2018-12-05T14:02:18.900Z,1.10
2018-12-05T14:03:19.001Z,1.20
2018-12-05T14:04:18.403Z,1.20
2018-12-05T14:05:18.282Z,1.40
2018-12-05T14:06:18.148Z,1.40
2018-12-05T14:07:18.136Z,1.10
2018-12-05T14:08:18.107Z,1.30
2018-12-05T14:09:18.098Z,1.00
2018-12-05T14:10:18.201Z,1.20
2018-12-05T14:11:18.038Z,1.10
2018-12-05T14:12:17.983Z,1.40
2018-12-05T14:13:17.958Z,1.20
2018-12-05T14:14:17.963Z,1.10
2018-12-05T14:15:18.012Z,1.10
2018-12-05T14:16:17.903Z,1.10
2018-12-05T14:17:17.893Z,1.20
2018-12-05T14:18:17.907Z,1.20
2018-12-05T14:19:17.853Z,1.40
2018-12-05T14:20:17.961Z,1.50
2018-12-05T14:21:17.804Z,1.50
2018-12-05T14:22:17.775Z,1.10
2018-12-05T14:23:17.905Z,1.50
2018-12-05T14:24:17.745Z,0.90
2018-12-05T14:25:17.987Z,1.70
2018-12-05T14:26:17.697Z,1.10
2018-12-05T14:27:17.670Z,1.30
2018-12-05T14:28:17.604Z,1.20
2018-12-05T14:29:17.585Z,1.20
2018-12-05T14:30:17.562Z,1.20
2018-12-05T14:31:17.629Z,1.20
2018-12-05T14:32:17.511Z,0.90
2018-12-05T14:33:17.489Z,1.20
2018-12-05T14:34:17.523Z,1.10
2018-12-05T14:35:17.469Z,1.10
2018-12-05T14:36:17.411Z,1.50
2018-12-05T14:37:17.488Z,1.20
2018-12-05T14:38:17.376Z,1.00
2018-12-05T14:39:17.336Z,1.40
2018-12-05T14:40:17.326Z,1.10
2018-12-05T14:41:17.305Z,1.10
2018-12-05T14:42:17.285Z,1.10
2018-12-05T14:43:17.283Z,1.10
2018-12-05T14:44:17.224Z,0.90
2018-12-05T14:45:17.185Z,1.50
2018-12-05T14:46:17.170Z,1.60
2018-12-05T14:47:17.156Z,1.10
2018-12-05T14:48:17.225Z,1.40
2018-12-05T14:49:17.127Z,1.10
2018-12-05T14:50:17.186Z,1.10
2018-12-05T14:51:17.646Z,1.10
2018-12-05T14:52:17.606Z,1.50
2018-12-05T14:53:18.073Z,1.20
2018-12-05T14:54:17.269Z,0.80
2018-12-05T14:55:17.766Z,0.90
2018-12-05T14:56:17.426Z,1.10
2018-12-05T14:57:17.530Z,1.10
2018-12-05T14:58:17.475Z,1.20
2018-12-05T14:59:18.708Z,1.10
2018-12-05T15:00:17.474Z,1.20
2018-12-05T15:01:17.738Z,1.00
2018-12-05T15:02:17.362Z,1.00
2018-12-05T15:03:17.676Z,0.70
2018-12-05T15:04:17.694Z,1.20
2018-12-05T15:05:18.096Z,1.00
2018-12-05T15:06:17.239Z,0.90
2018-12-05T15:07:17.670Z,0.80
2018-12-05T15:08:16.656Z,0.80
2018-12-05T15:09:16.624Z,0.90
2018-12-05T15:10:17.357Z,1.10
2018-12-05T15:11:18.171Z,1.20
2018-12-05T15:12:17.333Z,1.00
2018-12-05T15:13:17.493Z,1.00
2018-12-05T15:14:17.127Z,0.90
2018-12-05T15:15:17.259Z,1.00
2018-12-05T15:16:17.218Z,0.80
2018-12-05T15:17:18.059Z,1.00
2018-12-05T15:18:16.833Z,1.00
2018-12-05T15:19:16.589Z,1.00
2018-12-05T15:20:16.375Z,1.20
2018-12-05T15:21:16.340Z,1.00
2018-12-05T15:22:16.323Z,1.10
2018-12-05T15:23:16.433Z,1.00
2018-12-05T15:24:16.251Z,1.10
2018-12-05T15:25:16.283Z,1.00
2018-12-05T15:26:16.221Z,0.80
2018-12-05T15:27:16.346Z,0.90
2018-12-05T15:28:16.270Z,0.80
2018-12-05T15:29:16.181Z,0.80
2018-12-05T15:30:16.219Z,0.90
2018-12-05T15:31:16.149Z,0.80
2018-12-05T15:32:16.096Z,0.90
2018-12-05T15:33:16.192Z,0.70
2018-12-05T15:34:16.067Z,0.90
2018-12-05T15:35:16.046Z,0.70
2018-12-05T15:36:16.041Z,0.90
2018-12-05T15:37:15.966Z,0.80
2018-12-05T15:38:16.078Z,0.90
2018-12-05T15:39:15.934Z,0.70
2018-12-05T15:40:15.883Z,0.90
2018-12-05T15:41:15.860Z,0.70
2018-12-05T15:42:15.995Z,0.70
2018-12-05T15:43:15.885Z,0.70
2018-12-05T15:44:15.808Z,0.80
2018-12-05T15:45:21.479Z,1.10
2018-12-05T15:46:15.742Z,0.70
2018-12-05T15:47:15.780Z,0.60
2018-12-05T15:48:15.756Z,0.70
2018-12-05T15:49:15.818Z,0.90
2018-12-05T15:50:15.716Z,0.80
2018-12-05T15:51:15.642Z,0.80
2018-12-05T15:52:15.608Z,0.70
2018-12-05T15:53:15.609Z,0.60
2018-12-05T15:54:15.661Z,0.70
2018-12-05T15:55:15.531Z,0.70
2018-12-05T15:56:15.526Z,0.80
2018-12-05T15:57:15.493Z,0.70
2018-12-05T15:58:15.482Z,0.60
2018-12-05T15:59:15.448Z,0.70
2018-12-05T16:00:15.474Z,0.60
2018-12-05T16:01:15.559Z,0.60
2018-12-05T16:02:15.389Z,0.70
2018-12-05T16:03:15.342Z,0.50
2018-12-05T16:04:15.351Z,0.60
2018-12-05T16:05:15.378Z,0.60
2018-12-05T16:06:15.400Z,0.60
2018-12-05T16:07:15.387Z,0.70
2018-12-05T16:08:15.361Z,0.70
2018-12-05T16:09:15.244Z,0.60
2018-12-05T16:10:15.185Z,0.70
2018-12-05T16:11:15.821Z,0.70
2018-12-05T16:12:15.453Z,0.70
2018-12-05T16:13:15.206Z,0.80
2018-12-05T16:14:15.126Z,0.60
2018-12-05T16:15:15.068Z,0.50
2018-12-05T16:16:15.158Z,0.70
2018-12-05T16:17:15.154Z,0.60
2018-12-05T16:18:15.004Z,1.10
2018-12-05T16:19:15.014Z,0.70
2018-12-05T16:20:14.977Z,0.70
2018-12-05T16:21:15.086Z,0.60
2018-12-05T16:22:15.100Z,0.70
2018-12-05T16:23:14.890Z,0.60
2018-12-05T16:24:14.860Z,0.70
2018-12-05T16:25:14.846Z,0.60
2018-12-05T16:26:14.840Z,0.50
2018-12-05T16:27:15.023Z,0.70
2018-12-05T16:28:14.893Z,0.60
2018-12-05T16:29:14.758Z,0.60
2018-12-05T16:30:14.762Z,0.70
2018-12-05T16:31:14.821Z,0.50
2018-12-05T16:32:14.687Z,0.60
2018-12-05T16:33:14.883Z,0.70
2018-12-05T16:34:14.638Z,0.70
2018-12-05T16:35:14.639Z,0.60
2018-12-05T16:36:14.662Z,0.60
2018-12-05T16:37:14.668Z,0.60
2018-12-05T16:38:14.651Z,0.60
2018-12-05T16:39:14.596Z,0.60
2018-12-05T16:40:14.515Z,0.70
2018-12-05T16:41:14.482Z,0.60
2018-12-05T16:42:14.487Z,0.60
2018-12-05T16:43:14.423Z,0.60
2018-12-05T16:44:14.781Z,0.60
2018-12-05T16:45:14.390Z,0.70
2018-12-05T16:46:14.382Z,0.50
2018-12-05T16:47:14.345Z,0.50
2018-12-05T16:48:14.333Z,0.50
2018-12-05T16:49:14.323Z,0.70
2018-12-05T16:50:14.535Z,0.60
2018-12-05T16:51:14.275Z,0.60
2018-12-05T16:52:14.251Z,0.70
2018-12-05T16:53:14.207Z,0.60
2018-12-05T16:54:14.348Z,0.70
2018-12-05T16:55:14.158Z,0.70
2018-12-05T16:56:14.307Z,0.60
2018-12-05T16:57:14.510Z,0.60
2018-12-05T16:58:14.086Z,0.60
2018-12-05T16:59:14.079Z,0.50
2018-12-05T17:00:14.144Z,0.50
2018-12-05T17:01:14.119Z,0.60
2018-12-05T17:02:14.067Z,0.80
2018-12-05T17:03:14.085Z,0.60
2018-12-05T17:04:13.969Z,0.50
2018-12-05T17:05:14.053Z,0.60
2018-12-05T17:06:14.045Z,0.60
2018-12-05T17:07:13.979Z,0.60
2018-12-05T17:08:13.933Z,0.50
2018-12-05T17:09:13.853Z,0.70
2018-12-05T17:10:13.831Z,0.60
2018-12-05T17:11:13.879Z,0.60
2018-12-05T17:12:13.871Z,0.70
2018-12-05T17:13:13.837Z,0.50
2018-12-05T17:14:13.774Z,0.70
2018-12-05T17:15:13.722Z,0.60
2018-12-05T17:16:17.848Z,0.60
2018-12-05T17:17:13.978Z,0.60
2018-12-05T17:18:13.645Z,0.60
2018-12-05T17:19:13.612Z,0.60
2018-12-05T17:20:13.709Z,0.60
2018-12-05T17:21:14.122Z,0.60
2018-12-05T17:22:14.273Z,0.70
2018-12-05T17:23:13.749Z,0.60
2018-12-05T17:24:13.991Z,0.50
2018-12-05T17:25:13.631Z,0.70
2018-12-05T17:26:13.966Z,0.60
2018-12-05T17:27:13.886Z,0.50
2018-12-05T17:28:13.577Z,0.70
2018-12-05T17:29:13.781Z,0.50
2018-12-05T17:30:13.726Z,0.60
2018-12-05T17:31:13.947Z,0.60
2018-12-05T17:32:14.236Z,0.50
2018-12-05T17:33:13.726Z,0.70
2018-12-05T17:34:14.194Z,0.50
2018-12-05T17:35:13.583Z,0.60
2018-12-05T17:36:13.606Z,0.60
2018-12-05T17:37:13.624Z,0.60
2018-12-05T17:38:13.514Z,0.70
2018-12-05T17:39:13.741Z,0.50
2018-12-05T17:40:13.975Z,0.60
2018-12-05T17:41:13.654Z,0.60
2018-12-05T17:42:13.702Z,0.60
2018-12-05T17:43:13.355Z,0.60
2018-12-05T17:44:13.475Z,0.60
2018-12-05T17:45:13.139Z,0.60
2018-12-05T17:46:13.109Z,0.60
2018-12-05T17:47:13.509Z,0.60
2018-12-05T17:48:13.429Z,0.80
2018-12-05T17:49:13.247Z,0.60
2018-12-05T17:50:13.161Z,0.60
2018-12-05T17:51:13.138Z,0.60
2018-12-05T17:52:13.830Z,0.60
2018-12-05T17:53:12.836Z,0.60
2018-12-05T17:54:14.952Z,0.80
2018-12-05T17:55:12.807Z,0.50
2018-12-05T17:56:12.787Z,0.80
2018-12-05T17:57:12.858Z,0.60
2018-12-05T17:58:12.840Z,0.60
2018-12-05T17:59:12.707Z,0.70
2018-12-05T18:00:12.674Z,0.60
2018-12-05T18:01:12.675Z,0.50
2018-12-05T18:02:12.628Z,0.60
2018-12-05T18:03:12.771Z,0.60
2018-12-05T18:04:12.614Z,0.60
2018-12-05T18:05:12.618Z,0.80
2018-12-05T18:06:12.541Z,0.60
2018-12-05T18:07:12.522Z,0.60
2018-12-05T18:08:12.585Z,0.70
2018-12-05T18:09:12.474Z,0.60
2018-12-05T18:10:12.454Z,0.50
2018-12-05T18:11:12.432Z,0.60
2018-12-05T18:12:12.402Z,0.60
2018-12-05T18:13:12.486Z,0.70
2018-12-05T18:14:12.368Z,0.60
2018-12-05T18:15:12.457Z,0.60
2018-12-05T18:16:12.335Z,0.60
2018-12-05T18:17:12.295Z,0.70
2018-12-05T18:18:12.380Z,0.60
2018-12-05T18:19:12.236Z,0.50
2018-12-05T18:20:12.236Z,0.70
2018-12-05T18:21:12.191Z,0.60
2018-12-05T18:22:12.775Z,0.60
2018-12-05T18:23:12.376Z,0.60
2018-12-05T18:24:12.182Z,0.50
2018-12-05T18:25:12.160Z,0.50
2018-12-05T18:26:12.117Z,0.50
2018-12-05T18:27:12.076Z,0.60
2018-12-05T18:28:12.090Z,0.60
2018-12-05T18:29:12.400Z,0.50
2018-12-05T18:30:12.057Z,0.70
2018-12-05T18:31:11.983Z,0.60
2018-12-05T18:32:11.943Z,0.50
2018-12-05T18:33:13.092Z,0.60
2018-12-05T18:34:11.912Z,0.50
2018-12-05T18:35:11.998Z,0.60
2018-12-05T18:36:11.958Z,0.60
2018-12-05T18:37:11.881Z,0.70
2018-12-05T18:38:11.872Z,0.60
2018-12-05T18:39:11.812Z,0.60
2018-12-05T18:40:12.062Z,0.60
2018-12-05T18:41:11.731Z,0.60
2018-12-05T18:42:11.785Z,0.60
2018-12-05T18:43:11.981Z,0.60
2018-12-05T18:44:11.690Z,0.70
2018-12-05T18:45:11.977Z,0.60
2018-12-05T18:46:11.704Z,0.70
2018-12-05T18:47:12.041Z,0.60
2018-12-05T18:48:11.643Z,0.50
2018-12-05T18:49:11.577Z,0.50
2018-12-05T18:50:11.590Z,0.50
2018-12-05T18:51:11.517Z,0.60
2018-12-05T18:52:11.973Z,0.50
2018-12-05T18:53:11.511Z,0.60
2018-12-05T18:54:11.454Z,0.70
2018-12-05T18:55:11.809Z,0.60
2018-12-05T18:56:11.512Z,0.50
2018-12-05T18:57:11.454Z,0.60
2018-12-05T18:58:11.644Z,0.50
2018-12-05T18:59:12.555Z,0.60
2018-12-05T19:00:11.588Z,0.60
2018-12-05T19:01:11.298Z,0.60
2018-12-05T19:02:11.327Z,0.60
2018-12-05T19:03:11.426Z,0.70
2018-12-05T19:04:11.265Z,0.70
2018-12-05T19:05:11.216Z,0.60
2018-12-05T19:06:11.346Z,0.70
2018-12-05T19:07:11.170Z,0.60
2018-12-05T19:08:11.286Z,0.60
2018-12-05T19:09:11.266Z,0.50
2018-12-05T19:10:11.503Z,0.60
2018-12-05T19:11:11.068Z,0.70
2018-12-05T19:12:11.065Z,0.60
2018-12-05T19:13:12.090Z,0.70
2018-12-05T19:14:11.296Z,0.60
2018-12-05T19:15:12.701Z,1.00
2018-12-05T19:16:11.224Z,0.60
2018-12-05T19:17:10.947Z,0.70
2018-12-05T19:18:11.242Z,0.60
2018-12-05T19:19:11.079Z,0.60
2018-12-05T19:20:10.963Z,0.70
2018-12-05T19:21:11.108Z,0.70
2018-12-05T19:22:10.829Z,0.60
2018-12-05T19:23:10.842Z,0.70
2018-12-05T19:24:12.380Z,0.60
2018-12-05T19:25:10.931Z,0.60
2018-12-05T19:26:10.890Z,0.60
2018-12-05T19:27:11.042Z,0.70
2018-12-05T19:28:10.856Z,0.60
2018-12-05T19:29:10.802Z,0.60
2018-12-05T19:30:10.874Z,0.70
2018-12-05T19:31:11.062Z,0.60
2018-12-05T19:32:10.627Z,0.60
2018-12-05T19:33:10.827Z,0.60
2018-12-05T19:34:10.565Z,0.60
2018-12-05T19:35:11.047Z,0.60
2018-12-05T19:36:10.669Z,1.30
2018-12-05T19:37:10.465Z,0.70
2018-12-05T19:38:10.447Z,0.50
2018-12-05T19:39:10.416Z,0.60
2018-12-05T19:40:10.436Z,0.60
2018-12-05T19:41:10.635Z,0.80
2018-12-05T19:42:10.369Z,0.60
2018-12-05T19:43:10.346Z,0.60
2018-12-05T19:44:10.508Z,0.80
2018-12-05T19:45:10.345Z,0.80
2018-12-05T19:46:10.267Z,0.70
2018-12-05T19:47:13.085Z,0.60
2018-12-05T19:48:10.222Z,0.60
2018-12-05T19:49:10.216Z,0.80
2018-12-05T19:50:10.280Z,0.60
2018-12-05T19:51:10.158Z,0.60
2018-12-05T19:52:10.416Z,0.70
2018-12-05T19:53:10.880Z,0.60
2018-12-05T19:54:10.838Z,0.80
2018-12-05T19:55:10.380Z,0.80
2018-12-05T19:56:10.310Z,0.90
2018-12-05T19:57:10.417Z,0.70
2018-12-05T19:58:10.356Z,0.80
2018-12-05T19:59:10.831Z,0.60
2018-12-05T20:00:10.340Z,0.80
2018-12-05T20:01:12.246Z,0.70
2018-12-05T20:02:10.283Z,0.70
2018-12-05T20:03:09.978Z,0.70
2018-12-05T20:04:10.270Z,0.70
2018-12-05T20:05:09.888Z,0.70
2018-12-05T20:06:10.060Z,0.70
2018-12-05T20:07:09.794Z,0.70
2018-12-05T20:08:11.451Z,0.70
2018-12-05T20:09:10.444Z,0.80
2018-12-05T20:10:10.080Z,0.60
2018-12-05T20:11:09.730Z,0.60
2018-12-05T20:12:09.733Z,0.80
2018-12-05T20:13:09.672Z,0.70
2018-12-05T20:14:09.912Z,0.70
2018-12-05T20:15:10.862Z,0.80
2018-12-05T20:16:09.876Z,0.70
2018-12-05T20:17:09.916Z,0.70
2018-12-05T20:18:10.152Z,0.80
2018-12-05T20:19:09.719Z,0.80
2018-12-05T20:20:10.027Z,0.80
2018-12-05T20:21:10.174Z,0.70
2018-12-05T20:22:10.470Z,0.70
2018-12-05T20:23:10.377Z,0.80
2018-12-05T20:24:10.138Z,0.60
2018-12-05T20:25:10.324Z,0.60
2018-12-05T20:26:11.288Z,0.70
2018-12-05T20:27:09.374Z,0.60
2018-12-05T20:28:09.974Z,0.80
2018-12-05T20:29:10.110Z,0.60
2018-12-05T20:30:09.835Z,0.60
2018-12-05T21:16:37.298Z,0.60
2018-12-05T21:17:37.261Z,0.70
2018-12-05T21:18:37.141Z,0.70
2018-12-05T21:19:37.148Z,0.90
2018-12-05T21:20:37.108Z,0.60
2018-12-05T21:21:37.195Z,0.80
2018-12-05T21:22:37.108Z,0.60
2018-12-05T21:23:37.228Z,0.60
2018-12-05T21:24:37.014Z,0.70
2018-12-05T21:25:37.024Z,0.60
2018-12-05T21:26:37.064Z,0.70
2018-12-05T21:27:37.165Z,0.60
2018-12-05T21:28:37.109Z,0.70
2018-12-05T21:29:36.900Z,0.70
2018-12-05T21:30:37.074Z,0.70
2018-12-05T21:31:36.910Z,0.80
2018-12-05T21:32:36.821Z,0.70
2018-12-05T21:33:36.818Z,0.60
2018-12-05T21:34:37.735Z,0.70
2018-12-05T21:35:36.773Z,0.60
2018-12-05T21:36:36.786Z,0.70
2018-12-05T21:37:36.714Z,0.70
2018-12-05T21:38:36.737Z,0.50
2018-12-05T21:39:36.666Z,0.70
2018-12-05T21:40:36.644Z,0.80
2018-12-05T21:41:36.724Z,0.70
2018-12-05T21:42:36.726Z,1.10
2018-12-05T21:43:36.616Z,1.50
2018-12-05T21:44:36.567Z,0.90
2018-12-05T21:45:36.533Z,1.20
2018-12-05T21:46:36.734Z,1.10
2018-12-05T21:47:37.328Z,1.20
2018-12-05T21:48:36.546Z,1.20
2018-12-05T21:49:36.468Z,0.80
2018-12-05T21:50:36.495Z,1.20
2018-12-05T21:51:36.415Z,1.50
2018-12-05T21:52:36.392Z,1.40
2018-12-05T21:53:36.354Z,1.20
2018-12-05T21:54:37.830Z,1.20
2018-12-05T21:55:37.264Z,1.40
2018-12-05T21:56:36.374Z,1.30
2018-12-05T21:57:36.271Z,1.20
2018-12-05T21:58:36.246Z,0.90
2018-12-05T21:59:36.217Z,0.90
2018-12-05T22:00:36.739Z,0.80
2018-12-05T22:01:37.017Z,1.00
2018-12-05T22:02:36.258Z,1.40
2018-12-05T22:03:36.615Z,1.40
2018-12-05T22:04:36.095Z,1.20
2018-12-05T22:05:36.852Z,1.70
2018-12-05T22:06:37.279Z,1.40
2018-12-05T22:07:36.037Z,1.10
2018-12-05T22:08:36.016Z,1.00
2018-12-05T22:09:35.987Z,1.00
2018-12-05T22:10:35.950Z,1.30
2018-12-05T22:11:35.944Z,1.20
2018-12-05T22:12:36.005Z,1.60
2018-12-05T22:13:35.875Z,1.00
2018-12-05T22:14:35.901Z,1.10
2018-12-05T22:15:36.054Z,1.00
2018-12-05T22:16:36.152Z,1.00
2018-12-05T22:17:35.847Z,1.00
2018-12-05T22:18:37.954Z,0.80
2018-12-05T22:19:35.865Z,0.90
2018-12-05T22:20:35.718Z,1.00
2018-12-05T22:21:35.691Z,1.00
2018-12-05T22:22:36.504Z,0.80
2018-12-05T22:23:35.680Z,0.90
2018-12-05T22:24:35.618Z,0.70
2018-12-05T22:25:35.844Z,0.90
2018-12-05T22:26:36.480Z,0.60
2018-12-05T22:27:36.034Z,0.80
2018-12-05T22:28:37.451Z,1.00
2018-12-05T22:30:38.187Z,0.80
2018-12-05T22:31:37.040Z,0.70
2018-12-05T22:32:37.862Z,0.80
2018-12-05T22:33:38.355Z,0.80
2018-12-05T22:34:37.024Z,0.70
2018-12-05T22:35:37.139Z,0.90
2018-12-05T22:36:36.954Z,0.70
2018-12-05T22:37:36.464Z,0.60
2018-12-05T22:38:36.884Z,0.70
2018-12-05T22:39:36.638Z,0.80
2018-12-05T22:40:37.007Z,0.70
2018-12-05T22:41:35.942Z,0.70
2018-12-05T22:42:36.969Z,0.60
2018-12-05T22:43:36.989Z,0.80
2018-12-05T22:44:36.607Z,0.70
2018-12-05T22:45:38.003Z,0.70
2018-12-05T22:46:36.289Z,0.70
2018-12-05T22:47:36.243Z,0.60
2018-12-05T22:48:35.785Z,0.70
2018-12-05T22:49:36.606Z,0.60
2018-12-05T22:50:36.332Z,0.80
2018-12-05T22:51:37.554Z,0.50
2018-12-05T22:52:36.607Z,0.70
2018-12-05T22:53:36.215Z,0.60
2018-12-05T22:54:36.667Z,1.00
2018-12-05T22:55:34.944Z,0.70
2018-12-05T22:56:34.912Z,0.60
2018-12-05T22:57:35.069Z,0.70
2018-12-05T22:58:35.813Z,0.70
2018-12-05T22:59:35.585Z,0.60
2018-12-05T23:00:35.617Z,0.60
2018-12-05T23:01:36.784Z,0.60
2018-12-05T23:02:37.575Z,0.60
2018-12-05T23:03:36.533Z,0.70
2018-12-05T23:05:38.175Z,0.60
2018-12-05T23:06:36.171Z,0.90
2018-12-05T23:07:36.488Z,0.80
2018-12-05T23:08:37.378Z,0.80
2018-12-05T23:09:36.325Z,0.70
2018-12-05T23:10:36.569Z,0.70
2018-12-05T23:11:36.727Z,0.60
2018-12-05T23:12:36.335Z,1.00
2018-12-05T23:13:37.511Z,0.60
2018-12-05T23:14:37.316Z,0.80
2018-12-05T23:15:36.059Z,0.60
2018-12-05T23:16:35.908Z,0.90
2018-12-05T23:17:36.015Z,0.90
2018-12-05T23:18:34.737Z,0.70
2018-12-05T23:19:34.305Z,0.70
2018-12-05T23:20:34.346Z,0.90
2018-12-05T23:21:35.013Z,1.00
2018-12-05T23:22:34.237Z,0.80
2018-12-05T23:23:34.201Z,0.80
2018-12-05T23:24:34.181Z,0.80
2018-12-05T23:25:34.262Z,1.20
2018-12-05T23:26:34.158Z,1.10
2018-12-05T23:27:34.144Z,0.90
2018-12-05T23:28:34.130Z,0.60
2018-12-05T23:29:34.089Z,0.80
2018-12-05T23:30:34.132Z,0.80
2018-12-05T23:31:34.012Z,0.80
2018-12-05T23:32:33.981Z,0.70
2018-12-05T23:33:33.990Z,0.80
2018-12-05T23:34:33.969Z,0.70
2018-12-05T23:35:34.042Z,0.80
2018-12-05T23:36:33.900Z,0.80
2018-12-05T23:37:33.873Z,0.70
2018-12-05T23:38:33.937Z,0.90
2018-12-05T23:39:33.816Z,0.70
2018-12-05T23:40:33.857Z,0.80
2018-12-05T23:41:33.985Z,0.80
2018-12-05T23:42:34.033Z,0.90
2018-12-05T23:43:34.069Z,0.70
2018-12-05T23:44:33.704Z,0.80
2018-12-05T23:45:33.682Z,1.00
2018-12-05T23:46:33.761Z,0.90
2018-12-05T23:47:33.643Z,0.80
2018-12-05T23:48:33.613Z,0.80
2018-12-05T23:49:33.575Z,0.70
2018-12-05T23:50:33.549Z,0.90
2018-12-05T23:51:33.625Z,0.80
2018-12-05T23:52:33.508Z,0.80
2018-12-05T23:53:33.488Z,0.90
2018-12-05T23:54:33.453Z,1.00
2018-12-05T23:55:33.417Z,0.90
2018-12-05T23:56:33.397Z,0.60
2018-12-05T23:57:33.524Z,0.80
2018-12-05T23:58:33.367Z,0.70
2018-12-05T23:59:33.337Z,0.80
